createdAt,value
2023-04-16T00:00:24.215Z,9.7
2023-04-16T00:15:58.487Z,9.6
2023-04-16T00:31:32.863Z,9.6
2023-04-16T00:47:07.021Z,9.5
2023-04-16T01:02:41.656Z,9.4
2023-04-16T01:18:15.531Z,9.2
2023-04-16T01:33:49.576Z,9.2
2023-04-16T01:49:23.571Z,9
2023-04-16T02:04:57.661Z,9
2023-04-16T02:20:31.694Z,9
2023-04-16T02:36:05.727Z,8.9
2023-04-16T02:51:39.735Z,8.8
2023-04-16T03:07:13.926Z,8.7
2023-04-16T03:22:47.935Z,8.6
2023-04-16T03:38:21.920Z,8.6
2023-04-16T03:53:55.952Z,8.7
2023-04-16T04:09:29.949Z,8.9
2023-04-16T04:25:03.959Z,9
2023-04-16T04:40:38.632Z,9.1
2023-04-16T04:56:14.588Z,9.2
2023-04-16T05:11:48.589Z,9.2
2023-04-16T05:27:22.623Z,9.2
2023-04-16T05:42:56.632Z,9
2023-04-16T05:58:30.608Z,8.9
2023-04-16T06:14:04.610Z,8.9
2023-04-16T06:29:43.164Z,9
2023-04-16T06:45:17.273Z,9.2
2023-04-16T07:00:51.539Z,9.2
2023-04-16T07:16:25.754Z,8.9
2023-04-16T07:32:00.043Z,8.7
2023-04-16T07:47:34.218Z,8.6
2023-04-16T08:03:09.078Z,8.8
2023-04-16T08:18:43.165Z,8.7
2023-04-16T08:34:17.326Z,8.9
2023-04-16T08:49:51.330Z,8.9
2023-04-16T09:05:25.484Z,8.6
2023-04-16T09:20:59.540Z,8.6
2023-04-16T09:36:33.587Z,8.6
2023-04-16T09:52:07.614Z,8.9
2023-04-16T10:07:41.573Z,8.8
2023-04-16T10:23:15.569Z,8.9
2023-04-16T10:38:49.614Z,8.8
2023-04-16T10:54:23.631Z,9
2023-04-16T11:09:57.758Z,9
2023-04-16T11:25:31.911Z,9.2
2023-04-16T11:41:06.032Z,9.3
2023-04-16T11:56:40.092Z,9.4
2023-04-16T12:12:14.091Z,9.4
2023-04-16T12:27:52.950Z,9.1
2023-04-16T12:43:27.655Z,9.2
2023-04-16T12:59:01.524Z,9.4
2023-04-16T13:14:35.519Z,9.3
2023-04-16T13:30:09.968Z,9.3
2023-04-16T13:45:43.948Z,9.2
2023-04-16T14:01:18.585Z,9.2
2023-04-16T14:16:52.801Z,9.2
2023-04-16T14:32:27.176Z,9.2
2023-04-16T14:48:01.471Z,8.9
2023-04-16T15:03:36.341Z,8.8
2023-04-16T15:19:11.605Z,8.6
2023-04-16T15:34:45.738Z,8.7
2023-04-16T15:50:19.724Z,8.6
2023-04-16T16:05:53.713Z,8.8
2023-04-16T16:21:27.817Z,9
2023-04-16T16:37:01.820Z,9.2
2023-04-16T16:52:35.826Z,9.4
2023-04-16T17:08:09.849Z,9
2023-04-16T17:23:43.805Z,8.8
2023-04-16T17:39:18.211Z,8.8
2023-04-16T17:54:52.197Z,8.8
2023-04-16T18:10:26.239Z,8.7
2023-04-16T18:26:03.101Z,8.8
2023-04-16T18:41:37.277Z,8.8
2023-04-16T18:57:11.309Z,8.9
2023-04-16T19:12:45.413Z,8.6
2023-04-16T19:28:19.431Z,8.8
2023-04-16T19:43:53.434Z,8.9
2023-04-16T19:59:27.430Z,8.9
2023-04-16T20:15:01.462Z,8.9
2023-04-16T20:30:35.746Z,8.8
2023-04-16T20:46:10.194Z,8.8
2023-04-16T21:01:44.506Z,9
2023-04-16T21:17:18.573Z,9
2023-04-16T21:32:52.881Z,9
2023-04-16T21:48:27.107Z,9
2023-04-16T22:04:01.483Z,9.2
2023-04-16T22:19:35.307Z,9
2023-04-16T22:35:09.368Z,8.6
2023-04-16T22:50:43.365Z,8.5
2023-04-16T23:06:17.381Z,8.6
2023-04-16T23:21:51.359Z,8.5
2023-04-16T23:37:25.386Z,8.4
2023-04-16T23:52:59.365Z,8.1
